Time;durP1;ratioP1;P1;durP2;ratioP2;P2;SDS_P1;SDS_P2;PMS_P1;PMS_P2;Temp;Humidity;BMP_temperature;BMP_pressure;BME280_temperature;BME280_humidity;BME280_pressure;Samples;Min_cycle;Max_cycle;Signal;HPM_P1;HPM_P2
2022/11/09 00:01:15;;;;;;;5.37;3.87;;;;;;;10.73;74.16;95215.38;4976125;28;20267;-81
2022/11/09 00:03:40;;;;;;;8.17;4.33;;;;;;;10.72;74.26;95212.94;4972734;28;20184;-81
2022/11/09 00:06:06;;;;;;;4.83;4.10;;;;;;;10.70;74.21;95217.50;4969324;28;20189;-81
2022/11/09 00:08:31;;;;;;;5.17;3.77;;;;;;;10.69;74.56;95208.03;4974949;28;20276;-80
2022/11/09 00:11:08;;;;;;;4.70;3.60;;;;;;;10.61;74.67;95201.06;4977942;28;20241;-80
2022/11/09 00:13:38;;;;;;;5.50;4.00;;;;;;;10.55;75.26;95206.88;4949526;28;20291;-80
2022/11/09 00:16:04;;;;;;;4.97;3.77;;;;;;;10.64;74.89;95202.53;4971472;28;20350;-80
2022/11/09 00:18:30;;;;;;;4.80;3.63;;;;;;;10.49;75.37;95207.47;4975626;28;20609;-80
2022/11/09 00:20:55;;;;;;;5.77;4.07;;;;;;;10.55;75.09;95209.47;4970501;28;20263;-81
2022/11/09 00:23:21;;;;;;;4.13;3.63;;;;;;;10.53;75.03;95206.22;4976211;28;20570;-81
2022/11/09 00:25:47;;;;;;;4.40;3.60;;;;;;;10.55;75.13;95206.88;4971263;28;20683;-81
2022/11/09 00:28:12;;;;;;;5.50;3.90;;;;;;;10.52;75.66;95212.38;4968916;28;20197;-81
2022/11/09 00:30:38;;;;;;;6.90;3.67;;;;;;;10.46;75.77;95206.00;4965032;28;20221;-81
2022/11/09 00:33:03;;;;;;;5.17;3.27;;;;;;;10.57;75.63;95206.69;4966986;28;20252;-80
2022/11/09 00:35:28;;;;;;;4.23;3.40;;;;;;;10.60;75.60;95209.81;4973924;28;20193;-80
2022/11/09 00:37:54;;;;;;;3.93;3.13;;;;;;;10.59;76.02;95215.16;4971964;28;20287;-81
2022/11/09 00:40:19;;;;;;;4.63;3.13;;;;;;;10.63;76.02;95206.09;4968687;28;20188;-81
2022/11/09 00:42:44;;;;;;;5.20;3.37;;;;;;;10.64;76.30;95212.91;4971351;28;20688;-81
2022/11/09 00:45:10;;;;;;;5.50;3.13;;;;;;;10.68;75.94;95209.81;4976156;28;20192;-81
2022/11/09 00:47:36;;;;;;;4.03;3.40;;;;;;;10.65;75.84;95204.13;4966132;28;20218;-81
2022/11/09 00:50:01;;;;;;;4.23;3.30;;;;;;;10.64;75.80;95210.31;4967811;28;20203;-80
2022/11/09 00:52:26;;;;;;;6.33;3.30;;;;;;;10.65;76.20;95212.75;4961966;28;20652;-80
2022/11/09 00:54:52;;;;;;;3.53;3.07;;;;;;;10.67;76.30;95216.00;4979408;28;20193;-81
2022/11/09 00:57:17;;;;;;;5.37;3.30;;;;;;;10.74;75.86;95211.00;4970470;28;20195;-81
2022/11/09 00:59:42;;;;;;;6.40;3.40;;;;;;;10.73;76.02;95220.56;4977359;28;20185;-80
2022/11/09 01:02:11;;;;;;;3.57;2.83;;;;;;;10.69;76.47;95215.84;4968000;28;20685;-81
2022/11/09 01:04:36;;;;;;;3.63;3.10;;;;;;;10.76;75.88;95216.84;4954201;28;20251;-80
2022/11/09 01:07:01;;;;;;;3.47;3.10;;;;;;;10.71;76.03;95222.53;4968968;28;20259;-80
2022/11/09 01:09:26;;;;;;;5.20;3.20;;;;;;;10.72;76.43;95223.31;4974524;28;20215;-80
2022/11/09 01:11:52;;;;;;;3.93;2.90;;;;;;;10.76;76.36;95229.81;4978109;28;20516;-80
2022/11/09 01:14:17;;;;;;;3.40;3.10;;;;;;;10.73;76.31;95230.97;4979099;28;20192;-80
2022/11/09 01:16:42;;;;;;;4.00;3.20;;;;;;;10.74;76.00;95232.59;4979894;28;20650;-80
2022/11/09 01:19:08;;;;;;;3.80;3.47;;;;;;;10.73;76.16;95236.16;4974846;28;20225;-80
2022/11/09 01:21:33;;;;;;;3.53;3.00;;;;;;;10.77;76.88;95241.84;4977526;28;20204;-81
2022/11/09 01:23:58;;;;;;;4.00;3.00;;;;;;;10.76;78.24;95237.63;4974814;28;20197;-81
2022/11/09 01:26:24;;;;;;;3.27;2.63;;;;;;;10.78;78.59;95233.91;4977262;28;20661;-81
2022/11/09 01:28:49;;;;;;;5.70;2.63;;;;;;;10.77;79.20;95234.03;4950008;28;20235;-81
2022/11/09 01:31:17;;;;;;;2.77;2.50;;;;;;;10.81;79.43;95243.16;4981630;28;20212;-81
2022/11/09 01:33:43;;;;;;;4.83;2.90;;;;;;;10.83;80.00;95250.81;4969779;28;20212;-81
2022/11/09 01:36:20;;;;;;;3.13;2.70;;;;;;;10.85;80.34;95243.66;4970117;28;20181;-81
2022/11/09 01:38:46;;;;;;;3.37;2.50;;;;;;;10.82;81.37;95234.41;4969037;28;20291;-80
2022/11/09 01:41:14;;;;;;;5.60;2.60;;;;;;;10.82;82.30;95244.78;4976288;28;20284;-81
2022/11/09 01:43:39;;;;;;;3.00;2.70;;;;;;;10.81;83.50;95244.97;4975507;28;20219;-80
2022/11/09 01:46:13;;;;;;;4.53;2.80;;;;;;;10.81;83.58;95248.38;4968582;28;20212;-80
2022/11/09 01:48:54;;;;;;;3.73;2.77;;;;;;;10.78;83.66;95248.69;4970095;28;20598;-80
2022/11/09 01:51:31;;;;;;;3.10;2.67;;;;;;;10.77;84.52;95255.63;4961097;28;20216;-81
2022/11/09 01:54:00;;;;;;;3.90;3.23;;;;;;;10.78;85.36;95246.09;4974296;28;20234;-80
2022/11/09 01:56:26;;;;;;;4.57;2.70;;;;;;;10.78;86.34;95241.72;4958047;28;20646;-80
2022/11/09 01:58:56;;;;;;;3.50;2.97;;;;;;;10.81;85.88;95253.56;4971081;28;20282;-80
2022/11/09 02:01:21;;;;;;;4.30;2.70;;;;;;;10.81;86.16;95247.56;4946336;28;20583;-80
2022/11/09 02:03:55;;;;;;;4.77;3.00;;;;;;;10.83;87.42;95240.41;4964615;28;20264;-81
2022/11/09 02:06:20;;;;;;;6.53;3.00;;;;;;;10.82;87.55;95236.19;4966540;28;20672;-81
2022/11/09 02:08:47;;;;;;;4.63;2.90;;;;;;;10.84;87.20;95257.63;4975587;28;20425;-81
2022/11/09 02:11:15;;;;;;;5.00;3.13;;;;;;;10.82;87.88;95244.78;4968710;28;20263;-81
2022/11/09 02:13:44;;;;;;;6.20;3.17;;;;;;;10.85;87.50;95247.06;4983052;28;20582;-80
2022/11/09 02:16:11;;;;;;;3.07;2.77;;;;;;;10.82;88.34;95250.00;4971742;28;20247;-81
2022/11/09 02:18:39;;;;;;;5.73;3.60;;;;;;;10.78;90.03;95243.50;4976619;28;20739;-81
2022/11/09 02:21:04;;;;;;;7.07;3.37;;;;;;;10.77;89.80;95240.06;4983811;28;20284;-79
2022/11/09 02:23:30;;;;;;;6.47;3.30;;;;;;;10.78;89.94;95244.31;4963361;28;20624;-81
2022/11/09 02:26:00;;;;;;;5.13;3.43;;;;;;;10.80;90.60;95245.94;4975790;28;20270;-81
2022/11/09 02:28:26;;;;;;;6.63;3.47;;;;;;;10.77;92.19;95242.66;4981312;28;20251;-81
2022/11/09 02:30:53;;;;;;;5.37;3.63;;;;;;;10.70;93.78;95241.66;4973028;28;20697;-80
2022/11/09 02:33:18;;;;;;;5.13;3.40;;;;;;;10.70;93.40;95235.66;4972688;28;20626;-81
2022/11/09 02:35:44;;;;;;;5.47;3.23;;;;;;;10.69;94.64;95239.19;4974637;28;20227;-81
2022/11/09 02:38:13;;;;;;;3.97;3.03;;;;;;;10.65;95.33;95249.09;4964341;28;20284;-81
2022/11/09 02:40:41;;;;;;;4.63;3.50;;;;;;;10.68;95.16;95242.78;4984685;28;20201;-80
2022/11/09 02:43:08;;;;;;;3.63;2.77;;;;;;;10.69;95.49;95253.03;4970432;28;20753;-81
2022/11/09 02:45:33;;;;;;;3.57;2.87;;;;;;;10.58;98.99;95257.66;4980774;28;20259;-81
2022/11/09 02:47:58;;;;;;;3.40;3.10;;;;;;;10.65;97.92;95250.88;4973098;28;20201;-81
2022/11/09 02:50:24;;;;;;;3.50;2.90;;;;;;;10.69;97.65;95240.03;4971815;28;20192;-81
2022/11/09 02:52:49;;;;;;;5.70;3.20;;;;;;;10.66;97.79;95236.94;4967542;28;20227;-79
2022/11/09 02:55:14;;;;;;;4.63;3.50;;;;;;;10.62;98.05;95238.22;4980340;28;20193;-81
2022/11/09 02:57:40;;;;;;;3.27;2.97;;;;;;;10.63;97.80;95237.25;4974869;28;20607;-81
2022/11/09 03:00:06;;;;;;;5.30;3.13;;;;;;;10.60;98.43;95240.13;4972709;28;20192;-81
2022/11/09 03:02:31;;;;;;;3.60;2.80;;;;;;;10.56;99.50;95239.66;4982760;28;20336;-79
2022/11/09 03:04:56;;;;;;;5.70;3.30;;;;;;;10.58;98.99;95234.28;4949421;28;20625;-81
2022/11/09 03:07:22;;;;;;;5.63;4.07;;;;;;;10.57;99.27;95235.25;4969772;28;20201;-81
2022/11/09 03:09:47;;;;;;;5.20;3.10;;;;;;;10.53;100.00;95231.38;4976997;28;20708;-81
2022/11/09 03:12:27;;;;;;;7.07;2.90;;;;;;;10.56;100.00;95236.22;4977698;28;20223;-81
2022/11/09 03:14:53;;;;;;;3.13;2.83;;;;;;;10.59;100.00;95238.50;4969737;28;20184;-81
2022/11/09 03:17:18;;;;;;;2.83;2.60;;;;;;;10.70;100.00;95235.66;4973044;28;20184;-82
2022/11/09 03:19:44;;;;;;;2.73;2.47;;;;;;;10.77;100.00;95240.06;4980649;28;20649;-81
2022/11/09 03:22:09;;;;;;;4.60;2.77;;;;;;;10.76;100.00;95230.63;4970884;28;20205;-81
2022/11/09 03:24:34;;;;;;;4.30;3.13;;;;;;;10.87;100.00;95226.97;4984744;28;20192;-81
2022/11/09 03:27:00;;;;;;;2.90;2.40;;;;;;;10.85;100.00;95230.66;4969098;28;20188;-81
2022/11/09 03:29:25;;;;;;;4.27;2.47;;;;;;;10.80;100.00;95231.16;4980400;28;20189;-81
2022/11/09 03:31:50;;;;;;;2.70;2.10;;;;;;;10.86;100.00;95232.28;4962130;28;20227;-81
2022/11/09 03:34:16;;;;;;;2.53;2.03;;;;;;;10.93;100.00;95231.50;4978757;28;20193;-81
2022/11/09 03:36:41;;;;;;;2.30;2.10;;;;;;;10.98;100.00;95225.84;4978605;28;20216;-81
2022/11/09 03:39:06;;;;;;;2.53;1.90;;;;;;;11.01;100.00;95222.94;4966162;28;20752;-82
2022/11/09 03:41:31;;;;;;;2.10;1.90;;;;;;;11.06;100.00;95220.69;4972863;28;20208;-82
2022/11/09 03:43:57;;;;;;;2.53;2.23;;;;;;;11.05;100.00;95224.25;4973880;28;20193;-81
2022/11/09 03:46:22;;;;;;;3.37;2.23;;;;;;;11.03;100.00;95227.00;4970613;28;20679;-81
2022/11/09 03:48:47;;;;;;;4.73;2.40;;;;;;;10.91;100.00;95227.47;4959945;28;20185;-82
2022/11/09 03:51:13;;;;;;;3.60;2.33;;;;;;;10.89;100.00;95237.19;4974386;28;20240;-81
2022/11/09 03:53:38;;;;;;;2.30;2.10;;;;;;;10.84;100.00;95249.81;4977283;28;20204;-82
2022/11/09 03:56:03;;;;;;;6.23;2.53;;;;;;;10.82;100.00;95249.19;4965893;28;20563;-82
2022/11/09 03:58:28;;;;;;;4.90;2.60;;;;;;;10.73;100.00;95240.53;4956512;28;20196;-81
2022/11/09 04:00:54;;;;;;;4.20;2.53;;;;;;;10.70;100.00;95241.66;4983604;28;20205;-81
2022/11/09 04:03:19;;;;;;;3.87;2.97;;;;;;;10.69;100.00;95239.19;4981105;28;20196;-81
2022/11/09 04:05:44;;;;;;;4.97;3.10;;;;;;;10.60;100.00;95246.16;4976053;28;20185;-82
2022/11/09 04:08:10;;;;;;;4.53;2.80;;;;;;;10.57;100.00;95250.84;4972979;28;20661;-81
2022/11/09 04:10:35;;;;;;;3.40;3.00;;;;;;;10.64;100.00;95249.25;4976177;28;20223;-81
2022/11/09 04:13:00;;;;;;;3.27;2.80;;;;;;;10.57;100.00;95254.25;4985218;28;20192;-81
2022/11/09 04:15:25;;;;;;;3.40;3.10;;;;;;;10.53;100.00;95257.31;4961069;28;20286;-82
2022/11/09 04:17:55;;;;;;;3.87;2.90;;;;;;;10.55;100.00;95263.16;4974473;28;20189;-81
2022/11/09 04:20:21;;;;;;;3.80;3.30;;;;;;;10.51;100.00;95267.84;4980602;28;20257;-82
2022/11/09 04:22:53;;;;;;;5.33;3.17;;;;;;;10.50;100.00;95267.03;4957387;28;20720;-81
2022/11/09 04:25:18;;;;;;;3.77;2.60;;;;;;;10.49;100.00;95268.00;4970746;28;20672;-82
2022/11/09 04:27:43;;;;;;;3.90;2.87;;;;;;;10.55;100.00;95263.97;4983640;28;20193;-81
2022/11/09 04:30:09;;;;;;;4.63;2.70;;;;;;;10.60;100.00;95261.75;4972763;28;20184;-81
2022/11/09 04:32:34;;;;;;;7.70;2.77;;;;;;;10.57;100.00;95251.66;4976022;28;20630;-82
2022/11/09 04:34:59;;;;;;;3.10;2.80;;;;;;;10.59;100.00;95244.50;4967538;28;20667;-82
2022/11/09 04:37:25;;;;;;;3.23;2.40;;;;;;;10.62;100.00;95230.44;4954871;28;20227;-82
2022/11/09 04:39:50;;;;;;;5.30;2.97;;;;;;;10.56;100.00;95233.63;4980542;28;20240;-81
2022/11/09 04:42:15;;;;;;;3.07;2.77;;;;;;;10.56;100.00;95228.44;4971685;28;20213;-81
2022/11/09 04:44:40;;;;;;;3.20;2.90;;;;;;;10.49;100.00;95239.44;4961230;28;20561;-82
2022/11/09 04:47:06;;;;;;;2.87;2.57;;;;;;;10.55;100.00;95235.44;4965420;28;20219;-82
2022/11/09 04:49:31;;;;;;;3.33;3.00;;;;;;;10.53;100.00;95241.75;4956454;28;20592;-81
2022/11/09 04:51:56;;;;;;;3.23;2.77;;;;;;;10.56;100.00;95237.03;4985758;28;20224;-82
2022/11/09 04:54:22;;;;;;;3.70;3.03;;;;;;;10.50;100.00;95235.06;4972585;28;20236;-82
2022/11/09 04:56:47;;;;;;;4.60;3.30;;;;;;;10.43;100.00;95234.88;4971692;28;20192;-82
2022/11/09 04:59:12;;;;;;;3.60;2.73;;;;;;;10.45;100.00;95235.53;4954242;28;20658;-82
2022/11/09 05:01:37;;;;;;;3.77;3.37;;;;;;;10.48;100.00;95230.03;4970910;28;20208;-82
2022/11/09 05:04:03;;;;;;;3.40;2.80;;;;;;;10.44;100.00;95236.50;4977855;28;20197;-81
2022/11/09 05:06:31;;;;;;;4.17;2.80;;;;;;;10.44;100.00;95228.72;4971831;28;20728;-82
2022/11/09 05:08:57;;;;;;;3.60;2.80;;;;;;;10.45;100.00;95221.75;4962114;28;20724;-81
2022/11/09 05:11:23;;;;;;;3.77;3.40;;;;;;;10.38;100.00;95223.31;4979538;28;20236;-82
2022/11/09 05:13:50;;;;;;;4.07;3.30;;;;;;;10.41;100.00;95218.63;4963096;28;20593;-81
2022/11/09 05:16:16;;;;;;;3.30;3.00;;;;;;;10.33;100.00;95226.38;4969489;28;20193;-81
2022/11/09 05:18:41;;;;;;;4.70;3.13;;;;;;;10.49;100.00;95223.88;4974866;28;20194;-81
2022/11/09 05:21:07;;;;;;;3.87;3.40;;;;;;;10.41;100.00;95226.41;4980095;28;20225;-82
2022/11/09 05:26:16;;;;;;;4.33;3.40;;;;;;;10.47;100.00;95218.03;4973190;28;20246;-81
2022/11/09 05:28:41;;;;;;;5.63;3.80;;;;;;;10.37;100.00;95214.72;4968713;28;20196;-81
2022/11/09 05:31:07;;;;;;;5.57;3.57;;;;;;;10.29;100.00;95206.09;4977734;28;20228;-81
2022/11/09 05:33:32;;;;;;;3.50;3.20;;;;;;;10.30;100.00;95213.72;4968764;28;20239;-81
2022/11/09 05:35:57;;;;;;;4.70;3.90;;;;;;;10.26;100.00;95216.78;4968108;28;20814;-81
2022/11/09 05:38:23;;;;;;;4.57;3.63;;;;;;;10.32;100.00;95214.38;4969143;28;20196;-82
2022/11/09 05:40:52;;;;;;;6.20;3.83;;;;;;;10.40;100.00;95206.63;4942926;28;20214;-81
2022/11/09 05:43:18;;;;;;;4.07;3.67;;;;;;;10.25;100.00;95210.78;4957711;28;20189;-81
2022/11/09 05:45:44;;;;;;;4.30;3.90;;;;;;;10.26;100.00;95217.59;4964196;28;20728;-80
2022/11/09 05:48:10;;;;;;;4.63;3.80;;;;;;;10.36;100.00;95204.50;4969642;28;20288;-81
2022/11/09 05:50:36;;;;;;;5.07;4.00;;;;;;;10.34;100.00;95204.66;4956991;28;20212;-81
2022/11/09 05:53:02;;;;;;;4.43;3.77;;;;;;;10.26;100.00;95206.41;4973369;28;20247;-81
2022/11/09 05:55:27;;;;;;;6.47;4.30;;;;;;;10.16;100.00;95219.44;4968418;28;20606;-81
2022/11/09 05:57:53;;;;;;;4.93;4.43;;;;;;;10.31;100.00;95225.72;4958864;28;20244;-81
2022/11/09 06:00:19;;;;;;;4.77;4.33;;;;;;;10.37;100.00;95235.50;4972424;28;20193;-80
2022/11/09 06:02:44;;;;;;;5.40;4.17;;;;;;;10.30;100.00;95239.66;4977315;28;20488;-80
2022/11/09 06:05:09;;;;;;;6.07;4.23;;;;;;;10.44;100.00;95244.28;4964516;28;20232;-81
2022/11/09 06:07:34;;;;;;;5.87;4.93;;;;;;;10.53;100.00;95236.56;4984033;28;20188;-80
2022/11/09 06:10:00;;;;;;;5.73;5.00;;;;;;;10.54;100.00;95236.41;4969449;28;20193;-79
2022/11/09 06:12:25;;;;;;;6.87;4.63;;;;;;;10.50;100.00;95235.06;4953043;28;20713;-80
2022/11/09 06:14:50;;;;;;;5.27;4.60;;;;;;;10.56;100.00;95237.03;4966462;28;20193;-79
2022/11/09 06:17:16;;;;;;;6.20;4.87;;;;;;;10.60;100.00;95245.31;4961632;28;20203;-80
2022/11/09 06:19:41;;;;;;;4.80;4.40;;;;;;;10.55;100.00;95242.41;4979805;28;20192;-81
2022/11/09 06:22:06;;;;;;;5.47;4.23;;;;;;;10.36;100.00;95236.47;4965326;28;20213;-80
2022/11/09 06:24:32;;;;;;;4.50;4.10;;;;;;;10.38;100.00;95233.72;4960736;28;20696;-80
2022/11/09 06:26:57;;;;;;;4.57;4.07;;;;;;;10.30;100.00;95226.69;4962866;28;20207;-80
2022/11/09 06:29:22;;;;;;;5.97;4.80;;;;;;;10.38;100.00;95237.13;4982836;28;20252;-80
2022/11/09 06:31:47;;;;;;;5.97;4.47;;;;;;;10.50;100.00;95266.22;4970808;28;20213;-80
2022/11/09 06:34:14;;;;;;;7.80;4.63;;;;;;;10.42;100.00;95311.13;4972611;28;20220;-81
2022/11/09 06:36:39;;;;;;;7.77;4.80;;;;;;;10.13;100.00;95332.13;4979645;28;20235;-81
2022/11/09 06:39:04;;;;;;;4.23;3.50;;;;;;;10.05;100.00;95336.44;4961097;28;20192;-79
2022/11/09 06:41:29;;;;;;;3.23;2.93;;;;;;;10.09;100.00;95338.59;4973423;28;21013;-80
2022/11/09 06:43:55;;;;;;;8.17;2.80;;;;;;;10.05;100.00;95339.03;4977868;28;20193;-80
2022/11/09 06:46:20;;;;;;;3.70;2.80;;;;;;;10.15;100.00;95334.56;4970886;28;20239;-77
2022/11/09 06:48:45;;;;;;;4.10;3.20;;;;;;;10.19;100.00;95335.91;4975477;28;20244;-79
2022/11/09 06:51:11;;;;;;;2.80;2.60;;;;;;;10.20;100.00;95334.94;4973761;28;20217;-80
2022/11/09 06:53:38;;;;;;;6.20;3.20;;;;;;;10.05;100.00;95332.03;4972812;28;20628;-80
2022/11/09 06:56:04;;;;;;;7.23;2.97;;;;;;;10.14;100.00;95327.75;4973935;28;20287;-80
2022/11/09 06:58:30;;;;;;;3.03;2.83;;;;;;;10.27;100.00;95330.00;4975360;28;20193;-80
2022/11/09 07:00:55;;;;;;;4.70;3.27;;;;;;;10.18;100.00;95337.69;4970495;28;20304;-80
2022/11/09 07:03:21;;;;;;;3.37;3.10;;;;;;;10.31;100.00;95333.91;4956170;28;20558;-80
2022/11/09 07:05:47;;;;;;;4.63;4.23;;;;;;;10.34;100.00;95338.81;4956872;28;20564;-80
2022/11/09 07:08:13;;;;;;;4.17;3.80;;;;;;;10.35;100.00;95341.25;4977761;28;20559;-80
2022/11/09 07:10:39;;;;;;;3.90;3.60;;;;;;;10.40;100.00;95343.38;4982853;28;20731;-80
2022/11/09 07:13:05;;;;;;;3.57;2.70;;;;;;;10.44;100.00;95339.53;4957773;28;20212;-81
2022/11/09 07:15:31;;;;;;;2.73;2.53;;;;;;;10.45;100.00;95341.16;4942441;28;20193;-81
2022/11/09 07:17:57;;;;;;;2.80;2.60;;;;;;;10.42;100.00;95350.06;4984417;28;20235;-81
2022/11/09 07:20:23;;;;;;;2.83;2.63;;;;;;;10.44;100.00;95345.53;4973875;28;20223;-80
2022/11/09 07:22:49;;;;;;;4.40;4.00;;;;;;;10.37;100.00;95339.31;4953632;28;20212;-80
2022/11/09 07:25:14;;;;;;;5.67;5.17;;;;;;;10.53;100.00;95340.41;4977005;28;20229;-80
2022/11/09 07:27:40;;;;;;;3.40;3.10;;;;;;;10.52;100.00;95339.59;4967172;28;20197;-80
2022/11/09 07:30:06;;;;;;;2.27;2.03;;;;;;;10.53;100.00;95343.81;4984148;28;20625;-80
2022/11/09 07:32:35;;;;;;;2.10;1.90;;;;;;;10.55;100.00;95343.66;4971461;28;20216;-80
2022/11/09 07:35:00;;;;;;;2.17;1.80;;;;;;;10.49;100.00;95345.88;4979673;28;20193;-79
2022/11/09 07:37:26;;;;;;;2.83;2.00;;;;;;;10.55;100.00;95351.44;4977965;28;20201;-80
2022/11/09 07:39:51;;;;;;;2.17;1.80;;;;;;;10.54;100.00;95360.22;4957300;28;20543;-80
2022/11/09 07:42:16;;;;;;;2.60;2.40;;;;;;;10.54;100.00;95352.41;4966172;28;20725;-80
2022/11/09 07:44:42;;;;;;;4.03;2.80;;;;;;;10.55;100.00;95349.66;4972342;28;20577;-80
2022/11/09 07:47:07;;;;;;;2.67;2.47;;;;;;;10.58;100.00;95351.94;4957303;28;20673;-81
2022/11/09 07:49:32;;;;;;;3.47;2.70;;;;;;;10.58;100.00;95344.16;4966440;28;20224;-80
2022/11/09 07:51:57;;;;;;;2.93;2.47;;;;;;;10.66;100.00;95343.41;4971402;28;20217;-81
2022/11/09 07:54:24;;;;;;;2.87;2.57;;;;;;;10.73;100.00;95332.25;4972387;28;20188;-81
2022/11/09 07:56:50;;;;;;;7.17;3.63;;;;;;;10.70;100.00;95323.97;4971833;28;20255;-80
2022/11/09 07:59:15;;;;;;;4.37;3.37;;;;;;;10.68;100.00;95323.28;4970846;28;20192;-80
2022/11/09 08:01:40;;;;;;;3.17;2.67;;;;;;;10.77;100.00;95315.38;4983537;28;20205;-80
2022/11/09 08:04:05;;;;;;;1.90;1.80;;;;;;;10.84;100.00;95325.97;4978169;28;20677;-81
2022/11/09 08:06:31;;;;;;;1.87;1.77;;;;;;;10.82;100.00;95322.72;4974472;28;20562;-80
2022/11/09 08:08:56;;;;;;;2.33;1.93;;;;;;;10.92;100.00;95328.63;4985080;28;20645;-80
2022/11/09 08:11:22;;;;;;;2.73;2.20;;;;;;;10.97;100.00;95328.97;4981342;28;20325;-80
2022/11/09 08:13:47;;;;;;;2.50;2.30;;;;;;;10.98;100.00;95316.78;4969006;28;20205;-81
2022/11/09 08:16:12;;;;;;;2.60;2.00;;;;;;;10.97;100.00;95321.19;4979155;28;20192;-80
2022/11/09 08:18:39;;;;;;;2.93;2.43;;;;;;;11.02;100.00;95320.69;4955422;28;20202;-80
2022/11/09 08:21:04;;;;;;;2.63;2.07;;;;;;;11.02;100.00;95326.72;4955503;28;20223;-84
2022/11/09 08:23:30;;;;;;;2.47;2.20;;;;;;;11.07;100.00;95311.47;4960738;28;20201;-84
2022/11/09 08:25:55;;;;;;;3.10;2.80;;;;;;;11.11;100.00;95317.16;4971681;28;20196;-82
2022/11/09 08:28:21;;;;;;;3.33;3.03;;;;;;;11.10;100.00;95317.31;4955428;28;20665;-80
2022/11/09 08:30:57;;;;;;;3.63;2.70;;;;;;;11.11;100.00;95324.97;4954880;28;20217;-79
2022/11/09 08:33:23;;;;;;;3.03;2.40;;;;;;;11.04;100.00;95327.38;4984375;28;20263;-80
2022/11/09 08:35:48;;;;;;;11.03;9.27;;;;;;;11.17;100.00;95329.53;4982235;28;20189;-80
2022/11/09 08:38:13;;;;;;;3.87;3.47;;;;;;;11.18;100.00;95335.56;4955978;28;20559;-79
2022/11/09 08:40:39;;;;;;;5.47;3.47;;;;;;;11.18;100.00;95336.38;4966473;28;20209;-79
2022/11/09 08:43:06;;;;;;;4.53;3.37;;;;;;;11.12;100.00;95333.56;4975861;28;20200;-79
2022/11/09 08:45:33;;;;;;;5.27;4.10;;;;;;;11.25;100.00;95339.16;4981482;28;20716;-80
2022/11/09 08:47:59;;;;;;;4.37;3.97;;;;;;;11.26;100.00;95345.97;4963208;28;20185;-80
2022/11/09 08:50:25;;;;;;;4.40;3.97;;;;;;;11.25;100.00;95344.34;4972348;28;20245;-80
2022/11/09 08:52:50;;;;;;;4.10;3.70;;;;;;;11.27;100.00;95350.22;4952265;28;20192;-80
2022/11/09 08:55:16;;;;;;;5.10;4.60;;;;;;;11.33;100.00;95339.19;4983277;28;20191;-81
2022/11/09 08:57:41;;;;;;;5.97;5.27;;;;;;;11.42;100.00;95343.44;4967456;28;20193;-81
2022/11/09 09:00:07;;;;;;;5.90;5.30;;;;;;;11.40;100.00;95348.00;4963833;28;20558;-82
2022/11/09 09:02:32;;;;;;;4.13;3.77;;;;;;;11.29;100.00;95348.25;4984939;28;20212;-81
2022/11/09 09:04:58;;;;;;;3.60;3.30;;;;;;;11.46;100.00;95356.94;4945344;28;20196;-80
2022/11/09 09:07:23;;;;;;;3.03;2.73;;;;;;;11.45;100.00;95356.13;4982468;28;20820;-81
2022/11/09 09:09:48;;;;;;;3.80;3.50;;;;;;;11.45;100.00;95356.13;4979389;28;20199;-81
2022/11/09 09:12:14;;;;;;;2.73;2.53;;;;;;;11.73;100.00;95358.47;4970309;28;20227;-80
2022/11/09 09:14:39;;;;;;;3.13;2.80;;;;;;;11.61;100.00;95363.97;4970028;28;20225;-81
2022/11/09 09:17:04;;;;;;;3.40;3.07;;;;;;;11.83;100.00;95370.41;4954112;28;20260;-80
2022/11/09 09:19:30;;;;;;;4.90;3.23;;;;;;;12.03;100.00;95364.94;4971212;28;20184;-81
2022/11/09 09:21:56;;;;;;;3.20;2.90;;;;;;;11.97;100.00;95365.56;4976738;28;20636;-81
2022/11/09 09:24:21;;;;;;;3.53;3.20;;;;;;;11.94;100.00;95371.91;4960592;28;20219;-80
2022/11/09 09:26:46;;;;;;;2.47;2.27;;;;;;;12.26;100.00;95372.91;4968805;28;20464;-79
2022/11/09 09:29:12;;;;;;;2.33;2.13;;;;;;;12.23;100.00;95370.63;4978955;28;20575;-79
2022/11/09 09:31:38;;;;;;;3.07;2.40;;;;;;;12.36;99.63;95374.38;4956813;28;20213;-79
2022/11/09 09:34:04;;;;;;;2.70;2.50;;;;;;;12.16;100.00;95376.47;4975383;28;20678;-81
2022/11/09 09:36:29;;;;;;;2.00;1.63;;;;;;;12.07;100.00;95377.44;4961815;28;20193;-79
2022/11/09 09:38:55;;;;;;;2.30;1.97;;;;;;;12.18;100.00;95382.31;4969264;28;20246;-80
2022/11/09 09:41:33;;;;;;;1.70;1.60;;;;;;;12.24;100.00;95383.47;4968750;28;20193;-80
2022/11/09 09:44:05;;;;;;;1.97;1.70;;;;;;;11.99;100.00;95381.81;4947095;28;20192;-80
2022/11/09 09:46:40;;;;;;;2.37;1.90;;;;;;;12.25;100.00;95374.69;4965464;28;20180;-78
2022/11/09 09:49:11;;;;;;;2.63;2.43;;;;;;;12.45;99.66;95380.38;4979844;28;20673;-79
2022/11/09 09:51:41;;;;;;;4.07;2.47;;;;;;;12.21;100.00;95385.59;4978592;28;20348;-79
2022/11/09 09:54:12;;;;;;;1.87;1.63;;;;;;;12.27;100.00;95382.34;4970988;28;20657;-81
2022/11/09 09:56:43;;;;;;;3.87;1.60;;;;;;;12.39;100.00;95381.88;4958900;28;20268;-79
2022/11/09 09:59:08;;;;;;;1.80;1.40;;;;;;;12.54;99.81;95384.63;4975259;28;20207;-79
2022/11/09 10:01:39;;;;;;;3.50;1.77;;;;;;;12.71;99.03;95375.00;4964516;28;20201;-80
2022/11/09 10:04:39;;;;;;;1.97;1.70;;;;;;;12.75;98.41;95379.72;4979778;28;20200;-80
2022/11/09 10:07:16;;;;;;;2.00;1.70;;;;;;;12.88;98.34;95375.78;4915702;29;20249;-80
2022/11/09 10:09:54;;;;;;;1.60;1.50;;;;;;;12.81;98.35;95380.03;4934021;29;20198;-80
2022/11/09 10:12:38;;;;;;;2.17;1.80;;;;;;;12.72;98.19;95380.06;4952526;29;20232;-81
2022/11/09 10:15:13;;;;;;;2.87;2.20;;;;;;;12.88;96.72;95373.19;4958140;29;20242;-81
2022/11/09 10:18:02;;;;;;;2.77;1.53;;;;;;;12.82;97.45;95381.69;4953213;29;21705;-81
2022/11/09 10:20:41;;;;;;;2.03;1.80;;;;;;;12.73;98.46;95376.47;4937674;29;20621;-81
2022/11/09 10:23:24;;;;;;;2.33;1.90;;;;;;;12.85;97.72;95368.31;4919244;29;20202;-82
2022/11/09 10:25:53;;;;;;;2.83;2.00;;;;;;;12.85;97.92;95369.13;4932933;29;20186;-82
2022/11/09 10:28:22;;;;;;;2.07;1.93;;;;;;;12.95;97.81;95369.75;4920131;29;20194;-81
2022/11/09 10:30:48;;;;;;;2.40;2.17;;;;;;;13.07;96.94;95370.22;4902116;29;20228;-82
2022/11/09 10:33:17;;;;;;;2.00;1.90;;;;;;;13.16;96.32;95369.19;4921466;29;20197;-82
2022/11/09 10:35:51;;;;;;;3.57;2.30;;;;;;;12.92;98.67;95358.88;4919921;29;20578;-81
2022/11/09 10:38:21;;;;;;;2.53;2.33;;;;;;;13.11;96.58;95366.31;4919174;29;20288;-80
2022/11/09 10:40:52;;;;;;;2.47;2.27;;;;;;;13.14;96.70;95362.53;4918474;29;20209;-81
2022/11/09 10:43:17;;;;;;;3.27;2.67;;;;;;;13.00;97.90;95364.06;4956014;28;20205;-81
2022/11/09 10:45:44;;;;;;;3.07;2.43;;;;;;;13.02;97.53;95367.31;4949648;28;20192;-81
2022/11/09 10:48:11;;;;;;;3.43;3.13;;;;;;;12.92;98.20;95357.06;4954156;28;20185;-80
2022/11/09 10:50:37;;;;;;;3.47;2.80;;;;;;;13.18;97.52;95367.25;4943893;28;20212;-80
2022/11/09 10:53:26;;;;;;;3.43;2.57;;;;;;;13.20;97.23;95360.13;4982423;28;20193;-81
2022/11/09 10:56:10;;;;;;;3.20;2.90;;;;;;;13.26;96.89;95359.44;4952476;28;20189;-79
2022/11/09 10:58:38;;;;;;;4.27;3.37;;;;;;;12.92;99.01;95356.25;4949730;28;20196;-80
2022/11/09 11:01:15;;;;;;;4.03;3.27;;;;;;;13.21;98.59;95359.13;4977541;28;20212;-80
2022/11/09 11:03:41;;;;;;;5.10;2.90;;;;;;;13.25;97.67;95355.22;4965203;28;20691;-80
2022/11/09 11:06:19;;;;;;;3.23;2.93;;;;;;;13.11;98.56;95355.88;4951231;28;20227;-80
2022/11/09 11:08:56;;;;;;;4.47;2.60;;;;;;;13.51;97.13;95346.28;4965118;28;20189;-80
2022/11/09 11:11:23;;;;;;;3.93;3.50;;;;;;;13.83;95.43;95351.34;4965695;28;20667;-80
2022/11/09 11:13:50;;;;;;;5.00;3.07;;;;;;;13.74;95.17;95347.16;4970384;28;20193;-81
2022/11/09 11:16:23;;;;;;;3.43;2.53;;;;;;;13.71;95.13;95347.50;4971312;28;20197;-80
2022/11/09 11:18:48;;;;;;;3.27;2.50;;;;;;;13.72;94.22;95346.53;4976238;28;20200;-80
2022/11/09 11:21:16;;;;;;;3.17;2.80;;;;;;;13.68;96.11;95342.59;4960948;28;20453;-80
2022/11/09 11:23:43;;;;;;;3.03;2.77;;;;;;;13.62;96.10;95345.13;4976036;28;20193;-80
2022/11/09 11:26:16;;;;;;;4.20;2.67;;;;;;;13.65;96.77;95342.16;4977206;28;20200;-81
2022/11/09 11:28:49;;;;;;;3.63;2.20;;;;;;;13.69;96.14;95341.63;4965771;28;20287;-80
2022/11/09 11:31:17;;;;;;;3.20;2.57;;;;;;;13.70;96.54;95340.66;4957560;28;20558;-80